CAL5835 RCTP-VHHH
Flight info
| Callsign | CAL5835 |
|---|---|
| Flight time | 1h 22m |
| Altitude | 34000 |
| Route | CHALI1C CHALI T3 MKG A1 ELATO V522 ABBEY |
| Aircraft | B77L/H-SDE1E2E3FGHIJ2J3J4J5M1RWXY/LB1D1 |
Departure
| Time | 2026-05-06 14:55 |
|---|---|
| Airport | Taiwan Taoyuan International Airport (RCTP) |
Arrival
| Time | 2026-05-06 16:17 |
|---|---|
| Airport | Hong Kong International Airport (VHHH) |
| Time | Latitude | Longitude | Altitude | Speed | Heading |
|---|---|---|---|---|---|
| 2026-05-06 14:23 | 25.08979 | 121.24263 | 105 ft | 0 kts | 139° |
| 2026-05-06 14:40 | 25.08985 | 121.24257 | 107 ft | 2 kts | 138° |
| 2026-05-06 14:40 | 25.08997 | 121.24245 | 104 ft | 2 kts | 139° |
| 2026-05-06 14:40 | 25.09010 | 121.24233 | 103 ft | 2 kts | 138° |
| 2026-05-06 14:41 | 25.09022 | 121.24221 | 106 ft | 2 kts | 139° |
| 2026-05-06 14:41 | 25.09035 | 121.24209 | 103 ft | 2 kts | 140° |
| 2026-05-06 14:41 | 25.09047 | 121.24197 | 106 ft | 2 kts | 146° |
| 2026-05-06 14:41 | 25.09063 | 121.24192 | 104 ft | 2 kts | 188° |
| 2026-05-06 14:42 | 25.09078 | 121.24198 | 104 ft | 2 kts | 216° |
| 2026-05-06 14:42 | 25.09086 | 121.24204 | 103 ft | 1 kts | 226° |
| 2026-05-06 14:42 | 25.09086 | 121.24205 | 103 ft | 0 kts | 226° |
| 2026-05-06 14:45 | 25.09077 | 121.24194 | 104 ft | 7 kts | 227° |
| 2026-05-06 14:45 | 25.09039 | 121.24146 | 106 ft | 8 kts | 229° |
| 2026-05-06 14:45 | 25.09002 | 121.24098 | 107 ft | 8 kts | 229° |
| 2026-05-06 14:46 | 25.08964 | 121.24049 | 107 ft | 8 kts | 229° |
| 2026-05-06 14:46 | 25.08926 | 121.24001 | 108 ft | 8 kts | 229° |
| 2026-05-06 14:46 | 25.08888 | 121.23952 | 107 ft | 8 kts | 229° |
| 2026-05-06 14:46 | 25.08849 | 121.23904 | 106 ft | 9 kts | 228° |
| 2026-05-06 14:47 | 25.08807 | 121.23852 | 108 ft | 10 kts | 228° |
| 2026-05-06 14:47 | 25.08761 | 121.23794 | 106 ft | 10 kts | 230° |
| 2026-05-06 14:47 | 25.08712 | 121.23730 | 108 ft | 11 kts | 229° |
| 2026-05-06 14:47 | 25.08658 | 121.23661 | 105 ft | 12 kts | 229° |
| 2026-05-06 14:48 | 25.08601 | 121.23587 | 108 ft | 13 kts | 229° |
| 2026-05-06 14:48 | 25.08542 | 121.23513 | 106 ft | 2 kts | 229° |
| 2026-05-06 14:48 | 25.08524 | 121.23490 | 107 ft | 6 kts | 229° |
| 2026-05-06 14:48 | 25.08485 | 121.23441 | 106 ft | 11 kts | 229° |
| 2026-05-06 14:49 | 25.08425 | 121.23364 | 108 ft | 16 kts | 229° |
| 2026-05-06 14:49 | 25.08349 | 121.23268 | 107 ft | 15 kts | 229° |
| 2026-05-06 14:49 | 25.08268 | 121.23166 | 105 ft | 20 kts | 229° |
| 2026-05-06 14:49 | 25.08170 | 121.23041 | 107 ft | 24 kts | 230° |
| 2026-05-06 14:50 | 25.08052 | 121.22890 | 106 ft | 27 kts | 229° |
| 2026-05-06 14:50 | 25.07921 | 121.22723 | 108 ft | 31 kts | 229° |
| 2026-05-06 14:50 | 25.07816 | 121.22590 | 107 ft | 16 kts | 229° |
| 2026-05-06 14:50 | 25.07733 | 121.22484 | 107 ft | 20 kts | 229° |
| 2026-05-06 14:51 | 25.07632 | 121.22356 | 108 ft | 24 kts | 229° |
| 2026-05-06 14:51 | 25.07513 | 121.22205 | 106 ft | 28 kts | 229° |
| 2026-05-06 14:51 | 25.07379 | 121.22033 | 107 ft | 31 kts | 229° |
| 2026-05-06 14:51 | 25.07258 | 121.21880 | 106 ft | 21 kts | 229° |
| 2026-05-06 14:52 | 25.07178 | 121.21776 | 106 ft | 13 kts | 240° |
| 2026-05-06 14:52 | 25.07213 | 121.21702 | 108 ft | 13 kts | 319° |
| 2026-05-06 14:52 | 25.07221 | 121.21695 | 109 ft | 0 kts | 319° |
| 2026-05-06 14:53 | 25.07232 | 121.21684 | 107 ft | 4 kts | 319° |
| 2026-05-06 14:53 | 25.07268 | 121.21650 | 106 ft | 9 kts | 319° |
| 2026-05-06 14:53 | 25.07318 | 121.21637 | 106 ft | 8 kts | 27° |
| 2026-05-06 14:53 | 25.07339 | 121.21661 | 107 ft | 0 kts | 49° |
| 2026-05-06 14:54 | 25.07365 | 121.21694 | 108 ft | 19 kts | 49° |
| 2026-05-06 14:54 | 25.07576 | 121.21961 | 107 ft | 81 kts | 49° |
| 2026-05-06 14:54 | 25.08090 | 121.22616 | 106 ft | 143 kts | 49° |
| 2026-05-06 14:54 | 25.08845 | 121.23565 | 236 ft | 177 kts | 49° |
| 2026-05-06 14:55 | 25.09642 | 121.24594 | 812 ft | 178 kts | 50° |
| 2026-05-06 14:55 | 25.10462 | 121.25647 | 1360 ft | 183 kts | 51° |
| 2026-05-06 14:55 | 25.11315 | 121.26714 | 1912 ft | 190 kts | 51° |
| 2026-05-06 14:55 | 25.12219 | 121.27817 | 2463 ft | 199 kts | 48° |
| 2026-05-06 14:56 | 25.13264 | 121.28902 | 2864 ft | 215 kts | 39° |
| 2026-05-06 14:56 | 25.14662 | 121.29652 | 3233 ft | 235 kts | 11° |
| 2026-05-06 14:56 | 25.16331 | 121.29652 | 3595 ft | 256 kts | 346° |
| 2026-05-06 14:56 | 25.18006 | 121.28879 | 4192 ft | 264 kts | 323° |
| 2026-05-06 14:57 | 25.19287 | 121.27498 | 5170 ft | 258 kts | 302° |
| 2026-05-06 14:57 | 25.20188 | 121.25757 | 5892 ft | 265 kts | 296° |
| 2026-05-06 14:57 | 25.21057 | 121.23942 | 6658 ft | 269 kts | 296° |
| 2026-05-06 14:57 | 25.22067 | 121.22127 | 7243 ft | 281 kts | 302° |
| 2026-05-06 14:58 | 25.23236 | 121.20412 | 8172 ft | 282 kts | 306° |
| 2026-05-06 14:58 | 25.24484 | 121.18724 | 9050 ft | 280 kts | 307° |
| 2026-05-06 14:58 | 25.25778 | 121.17041 | 9623 ft | 293 kts | 308° |
| 2026-05-06 14:58 | 25.27001 | 121.15324 | 10655 ft | 280 kts | 297° |
| 2026-05-06 14:59 | 25.27640 | 121.13280 | 11100 ft | 293 kts | 273° |
| 2026-05-06 14:59 | 25.27375 | 121.11006 | 11279 ft | 316 kts | 248° |
| 2026-05-06 14:59 | 25.26183 | 121.08874 | 11460 ft | 340 kts | 230° |
| 2026-05-06 14:59 | 25.24544 | 121.06854 | 11645 ft | 363 kts | 228° |
| 2026-05-06 15:00 | 25.22825 | 121.04740 | 12222 ft | 374 kts | 229° |
| 2026-05-06 15:00 | 25.21081 | 121.02561 | 12974 ft | 380 kts | 229° |
| 2026-05-06 15:00 | 25.19280 | 121.00416 | 13805 ft | 383 kts | 225° |
| 2026-05-06 15:00 | 25.17356 | 120.98382 | 14606 ft | 383 kts | 224° |
| 2026-05-06 15:01 | 25.15431 | 120.96379 | 15274 ft | 388 kts | 224° |
| 2026-05-06 15:01 | 25.13443 | 120.94282 | 15913 ft | 394 kts | 225° |
| 2026-05-06 15:01 | 25.11453 | 120.92156 | 16472 ft | 401 kts | 225° |
| 2026-05-06 15:01 | 25.09439 | 120.89985 | 17000 ft | 408 kts | 225° |
| 2026-05-06 15:02 | 25.07425 | 120.87807 | 17553 ft | 415 kts | 225° |
| 2026-05-06 15:02 | 25.05353 | 120.85566 | 18129 ft | 420 kts | 226° |
| 2026-05-06 15:02 | 25.03247 | 120.83292 | 18690 ft | 423 kts | 225° |
| 2026-05-06 15:02 | 25.01141 | 120.81020 | 19313 ft | 424 kts | 225° |
| 2026-05-06 15:03 | 24.99026 | 120.78742 | 19936 ft | 425 kts | 225° |
| 2026-05-06 15:03 | 24.96910 | 120.76464 | 20529 ft | 427 kts | 225° |
| 2026-05-06 15:03 | 24.94779 | 120.74172 | 21121 ft | 429 kts | 225° |
| 2026-05-06 15:03 | 24.92641 | 120.71872 | 21687 ft | 431 kts | 225° |
| 2026-05-06 15:04 | 24.91214 | 120.70339 | 22060 ft | 433 kts | 225° |
| 2026-05-06 15:04 | 24.88321 | 120.67230 | 22825 ft | 435 kts | 225° |
| 2026-05-06 15:04 | 24.86173 | 120.64923 | 23354 ft | 438 kts | 225° |
| 2026-05-06 15:04 | 24.83984 | 120.62575 | 23842 ft | 440 kts | 225° |
| 2026-05-06 15:05 | 24.81789 | 120.60219 | 24242 ft | 443 kts | 225° |
| 2026-05-06 15:05 | 24.80295 | 120.58616 | 24515 ft | 445 kts | 225° |
| 2026-05-06 15:05 | 24.78066 | 120.56227 | 24919 ft | 448 kts | 225° |
| 2026-05-06 15:05 | 24.75093 | 120.53042 | 25446 ft | 452 kts | 225° |
| 2026-05-06 15:06 | 24.73566 | 120.51409 | 25732 ft | 454 kts | 225° |
| 2026-05-06 15:06 | 24.71173 | 120.49127 | 26097 ft | 457 kts | 219° |
| 2026-05-06 15:06 | 24.68571 | 120.47098 | 26474 ft | 462 kts | 216° |
| 2026-05-06 15:06 | 24.65866 | 120.45157 | 26846 ft | 465 kts | 215° |
| 2026-05-06 15:07 | 24.63147 | 120.43223 | 27227 ft | 468 kts | 215° |
| 2026-05-06 15:07 | 24.60411 | 120.41237 | 27597 ft | 471 kts | 216° |
| 2026-05-06 15:07 | 24.57688 | 120.39216 | 27951 ft | 474 kts | 216° |
| 2026-05-06 15:07 | 24.54962 | 120.37162 | 28308 ft | 477 kts | 217° |
| 2026-05-06 15:08 | 24.52227 | 120.35088 | 28675 ft | 480 kts | 217° |
| 2026-05-06 15:08 | 24.49475 | 120.33002 | 28998 ft | 482 kts | 217° |
| 2026-05-06 15:08 | 24.46708 | 120.30911 | 29209 ft | 483 kts | 217° |
| 2026-05-06 15:08 | 24.43969 | 120.28836 | 29388 ft | 486 kts | 217° |
| 2026-05-06 15:09 | 24.41194 | 120.26698 | 29593 ft | 487 kts | 218° |
| 2026-05-06 15:09 | 24.38425 | 120.24546 | 29885 ft | 488 kts | 218° |
| 2026-05-06 15:09 | 24.35653 | 120.22388 | 30265 ft | 487 kts | 218° |
| 2026-05-06 15:09 | 24.32894 | 120.20244 | 30581 ft | 485 kts | 218° |
| 2026-05-06 15:10 | 24.30136 | 120.18106 | 30845 ft | 485 kts | 218° |
| 2026-05-06 15:10 | 24.27376 | 120.15971 | 31089 ft | 485 kts | 218° |
| 2026-05-06 15:10 | 24.24617 | 120.13839 | 31349 ft | 485 kts | 218° |
| 2026-05-06 15:10 | 24.21856 | 120.11707 | 31632 ft | 485 kts | 218° |
| 2026-05-06 15:11 | 24.19129 | 120.09601 | 31905 ft | 484 kts | 218° |
| 2026-05-06 15:11 | 24.16372 | 120.07475 | 32176 ft | 484 kts | 218° |
| 2026-05-06 15:11 | 24.13619 | 120.05350 | 32446 ft | 484 kts | 218° |
| 2026-05-06 15:11 | 24.10873 | 120.03226 | 32732 ft | 483 kts | 218° |
| 2026-05-06 15:12 | 24.08128 | 120.01100 | 33025 ft | 483 kts | 218° |
| 2026-05-06 15:12 | 24.05391 | 119.98982 | 33311 ft | 482 kts | 218° |
| 2026-05-06 15:12 | 24.02656 | 119.96867 | 33608 ft | 482 kts | 218° |
| 2026-05-06 15:12 | 23.99907 | 119.94744 | 33887 ft | 482 kts | 218° |
| 2026-05-06 15:13 | 23.97156 | 119.92622 | 33938 ft | 485 kts | 218° |
| 2026-05-06 15:13 | 23.91657 | 119.88389 | 33972 ft | 482 kts | 218° |
| 2026-05-06 15:14 | 23.86179 | 119.84175 | 33983 ft | 480 kts | 218° |
| 2026-05-06 15:14 | 23.80724 | 119.79981 | 33988 ft | 479 kts | 218° |
| 2026-05-06 15:15 | 23.75278 | 119.75797 | 33995 ft | 478 kts | 218° |
| 2026-05-06 15:15 | 23.69830 | 119.71616 | 34006 ft | 479 kts | 218° |
| 2026-05-06 15:16 | 23.64405 | 119.67457 | 34008 ft | 480 kts | 218° |
| 2026-05-06 15:16 | 23.59436 | 119.62678 | 34006 ft | 475 kts | 231° |
| 2026-05-06 15:17 | 23.55467 | 119.56957 | 34007 ft | 472 kts | 240° |
| 2026-05-06 15:17 | 23.51997 | 119.50888 | 34004 ft | 472 kts | 241° |
| 2026-05-06 15:18 | 23.48522 | 119.44795 | 33994 ft | 473 kts | 240° |
| 2026-05-06 15:18 | 23.45021 | 119.38730 | 33995 ft | 473 kts | 240° |
| 2026-05-06 15:19 | 23.41519 | 119.32705 | 33989 ft | 473 kts | 240° |
| 2026-05-06 15:19 | 23.37996 | 119.26658 | 33986 ft | 472 kts | 240° |
| 2026-05-06 15:20 | 23.34477 | 119.20620 | 33983 ft | 472 kts | 240° |
| 2026-05-06 15:20 | 23.30960 | 119.14593 | 33991 ft | 472 kts | 240° |
| 2026-05-06 15:21 | 23.27443 | 119.08572 | 33992 ft | 471 kts | 240° |
| 2026-05-06 15:21 | 23.23923 | 119.02553 | 33987 ft | 471 kts | 240° |
| 2026-05-06 15:22 | 23.20424 | 118.96575 | 33993 ft | 471 kts | 240° |
| 2026-05-06 15:22 | 23.16900 | 118.90565 | 33992 ft | 471 kts | 240° |
| 2026-05-06 15:23 | 23.13380 | 118.84566 | 33996 ft | 472 kts | 240° |
| 2026-05-06 15:23 | 23.09847 | 118.78553 | 33997 ft | 472 kts | 239° |
| 2026-05-06 15:24 | 23.06310 | 118.72540 | 33999 ft | 472 kts | 239° |
| 2026-05-06 15:24 | 23.02769 | 118.66527 | 33993 ft | 472 kts | 239° |
| 2026-05-06 15:25 | 22.99226 | 118.60515 | 33992 ft | 473 kts | 239° |
| 2026-05-06 15:25 | 22.95674 | 118.54497 | 33993 ft | 473 kts | 239° |
| 2026-05-06 15:26 | 22.92111 | 118.48490 | 33995 ft | 473 kts | 239° |
| 2026-05-06 15:26 | 22.88537 | 118.42488 | 34000 ft | 474 kts | 239° |
| 2026-05-06 15:27 | 22.84983 | 118.36520 | 33991 ft | 474 kts | 239° |
| 2026-05-06 15:27 | 22.81406 | 118.30519 | 33997 ft | 474 kts | 239° |
| 2026-05-06 15:28 | 22.77825 | 118.24516 | 33995 ft | 474 kts | 239° |
| 2026-05-06 15:28 | 22.74241 | 118.18515 | 33996 ft | 475 kts | 239° |
| 2026-05-06 15:29 | 22.70652 | 118.12513 | 33995 ft | 475 kts | 239° |
| 2026-05-06 15:29 | 22.67057 | 118.06506 | 34001 ft | 475 kts | 239° |
| 2026-05-06 15:30 | 22.63461 | 118.00506 | 33999 ft | 475 kts | 239° |
| 2026-05-06 15:30 | 22.59859 | 117.94500 | 33996 ft | 475 kts | 239° |
| 2026-05-06 15:31 | 22.56272 | 117.88480 | 33998 ft | 475 kts | 239° |
| 2026-05-06 15:31 | 22.52695 | 117.82465 | 33995 ft | 475 kts | 239° |
| 2026-05-06 15:32 | 22.47337 | 117.73475 | 33989 ft | 476 kts | 239° |
| 2026-05-06 15:32 | 22.43749 | 117.67464 | 33990 ft | 476 kts | 239° |
| 2026-05-06 15:33 | 22.40163 | 117.61465 | 33994 ft | 475 kts | 239° |
| 2026-05-06 15:33 | 22.36573 | 117.55465 | 33994 ft | 475 kts | 240° |
| 2026-05-06 15:34 | 22.33920 | 117.49008 | 33994 ft | 469 kts | 257° |
| 2026-05-06 15:34 | 22.33019 | 117.42121 | 33996 ft | 465 kts | 270° |
| 2026-05-06 15:35 | 22.32946 | 117.35118 | 33991 ft | 466 kts | 270° |
| 2026-05-06 15:35 | 22.32887 | 117.28122 | 33997 ft | 466 kts | 270° |
| 2026-05-06 15:36 | 22.32783 | 117.21113 | 33997 ft | 466 kts | 270° |
| 2026-05-06 15:36 | 22.32653 | 117.14113 | 33993 ft | 466 kts | 270° |
| 2026-05-06 15:37 | 22.32515 | 117.07157 | 33991 ft | 466 kts | 270° |
| 2026-05-06 15:37 | 22.32376 | 117.00168 | 33991 ft | 466 kts | 270° |
| 2026-05-06 15:38 | 22.32234 | 116.93176 | 33990 ft | 466 kts | 270° |
| 2026-05-06 15:38 | 22.32089 | 116.86165 | 33995 ft | 465 kts | 270° |
| 2026-05-06 15:39 | 22.31942 | 116.79187 | 33996 ft | 465 kts | 270° |
| 2026-05-06 15:39 | 22.31792 | 116.72196 | 33994 ft | 465 kts | 270° |
| 2026-05-06 15:40 | 22.31639 | 116.65215 | 33992 ft | 465 kts | 270° |
| 2026-05-06 15:40 | 22.31485 | 116.58286 | 33995 ft | 465 kts | 270° |
| 2026-05-06 15:41 | 22.31326 | 116.51302 | 33990 ft | 465 kts | 270° |
| 2026-05-06 15:41 | 22.31164 | 116.44335 | 33722 ft | 463 kts | 270° |
| 2026-05-06 15:42 | 22.31082 | 116.40843 | 33348 ft | 465 kts | 270° |
| 2026-05-06 15:42 | 22.31000 | 116.37348 | 33015 ft | 466 kts | 270° |
| 2026-05-06 15:42 | 22.30916 | 116.33849 | 32778 ft | 465 kts | 270° |
| 2026-05-06 15:42 | 22.30832 | 116.30403 | 32616 ft | 463 kts | 270° |
| 2026-05-06 15:43 | 22.30748 | 116.26935 | 32452 ft | 461 kts | 269° |
| 2026-05-06 15:43 | 22.30662 | 116.23478 | 32263 ft | 460 kts | 269° |
| 2026-05-06 15:43 | 22.30577 | 116.20031 | 32050 ft | 459 kts | 269° |
| 2026-05-06 15:43 | 22.30491 | 116.16587 | 31852 ft | 458 kts | 269° |
| 2026-05-06 15:44 | 22.30404 | 116.13155 | 31650 ft | 457 kts | 269° |
| 2026-05-06 15:44 | 22.30317 | 116.09724 | 31461 ft | 456 kts | 269° |
| 2026-05-06 15:44 | 22.30229 | 116.06299 | 31279 ft | 455 kts | 269° |
| 2026-05-06 15:44 | 22.30141 | 116.02892 | 31094 ft | 454 kts | 269° |
| 2026-05-06 15:45 | 22.30053 | 115.99484 | 30610 ft | 453 kts | 269° |
| 2026-05-06 15:45 | 22.29963 | 115.96091 | 30090 ft | 450 kts | 269° |
| 2026-05-06 15:45 | 22.29875 | 115.92733 | 29478 ft | 447 kts | 269° |
| 2026-05-06 15:45 | 22.29786 | 115.89386 | 28893 ft | 443 kts | 269° |
| 2026-05-06 15:46 | 22.29698 | 115.86118 | 28353 ft | 439 kts | 269° |
| 2026-05-06 15:46 | 22.29609 | 115.82840 | 27814 ft | 435 kts | 269° |
| 2026-05-06 15:46 | 22.29529 | 115.79593 | 27287 ft | 431 kts | 269° |
| 2026-05-06 15:46 | 22.29460 | 115.76363 | 26770 ft | 427 kts | 269° |
| 2026-05-06 15:47 | 22.29393 | 115.73171 | 26248 ft | 424 kts | 268° |
| 2026-05-06 15:47 | 22.29323 | 115.70003 | 25740 ft | 420 kts | 268° |
| 2026-05-06 15:47 | 22.29248 | 115.66855 | 25228 ft | 418 kts | 268° |
| 2026-05-06 15:47 | 22.29164 | 115.63729 | 24717 ft | 415 kts | 268° |
| 2026-05-06 15:48 | 22.29075 | 115.60613 | 24214 ft | 413 kts | 267° |
| 2026-05-06 15:48 | 22.28987 | 115.57560 | 23721 ft | 411 kts | 267° |
| 2026-05-06 15:48 | 22.28899 | 115.54484 | 23166 ft | 409 kts | 267° |
| 2026-05-06 15:48 | 22.28812 | 115.51429 | 22632 ft | 406 kts | 267° |
| 2026-05-06 15:49 | 22.28725 | 115.48390 | 22137 ft | 402 kts | 267° |
| 2026-05-06 15:49 | 22.28639 | 115.45383 | 21649 ft | 399 kts | 267° |
| 2026-05-06 15:49 | 22.28553 | 115.42404 | 21173 ft | 396 kts | 267° |
| 2026-05-06 15:49 | 22.28468 | 115.39441 | 20706 ft | 393 kts | 267° |
| 2026-05-06 15:50 | 22.28382 | 115.36507 | 20239 ft | 390 kts | 267° |
| 2026-05-06 15:50 | 22.28297 | 115.33584 | 19775 ft | 387 kts | 267° |
| 2026-05-06 15:50 | 22.28209 | 115.30682 | 19295 ft | 386 kts | 268° |
| 2026-05-06 15:50 | 22.28121 | 115.27797 | 18832 ft | 384 kts | 268° |
| 2026-05-06 15:51 | 22.28033 | 115.24928 | 18357 ft | 382 kts | 268° |
| 2026-05-06 15:51 | 22.27944 | 115.22060 | 17847 ft | 380 kts | 268° |
| 2026-05-06 15:51 | 22.27856 | 115.19249 | 17367 ft | 378 kts | 268° |
| 2026-05-06 15:51 | 22.27768 | 115.16428 | 16899 ft | 374 kts | 268° |
| 2026-05-06 15:52 | 22.27680 | 115.13628 | 16438 ft | 371 kts | 268° |
| 2026-05-06 15:52 | 22.27593 | 115.10856 | 15985 ft | 368 kts | 268° |
| 2026-05-06 15:52 | 22.27505 | 115.08097 | 15537 ft | 365 kts | 268° |
| 2026-05-06 15:52 | 22.27418 | 115.05362 | 15090 ft | 362 kts | 268° |
| 2026-05-06 15:53 | 22.27361 | 115.03568 | 14796 ft | 361 kts | 268° |
| 2026-05-06 15:53 | 22.27274 | 115.00869 | 14341 ft | 359 kts | 268° |
| 2026-05-06 15:53 | 22.27188 | 114.98183 | 13900 ft | 356 kts | 268° |
| 2026-05-06 15:53 | 22.27101 | 114.95516 | 13416 ft | 354 kts | 268° |
| 2026-05-06 15:54 | 22.27015 | 114.92871 | 12958 ft | 351 kts | 268° |
| 2026-05-06 15:54 | 22.26927 | 114.90246 | 12518 ft | 348 kts | 268° |
| 2026-05-06 15:54 | 22.26836 | 114.87654 | 12093 ft | 344 kts | 268° |
| 2026-05-06 15:54 | 22.26746 | 114.85090 | 11663 ft | 341 kts | 268° |
| 2026-05-06 15:55 | 22.26656 | 114.82547 | 11252 ft | 337 kts | 268° |
| 2026-05-06 15:55 | 22.26526 | 114.80065 | 11104 ft | 321 kts | 261° |
| 2026-05-06 15:55 | 22.25809 | 114.77839 | 11028 ft | 314 kts | 242° |
| 2026-05-06 15:55 | 22.24498 | 114.75935 | 10991 ft | 321 kts | 227° |
| 2026-05-06 15:56 | 22.22905 | 114.74260 | 10986 ft | 326 kts | 225° |
| 2026-05-06 15:56 | 22.21272 | 114.72619 | 10958 ft | 314 kts | 224° |
| 2026-05-06 15:56 | 22.19671 | 114.71018 | 10592 ft | 311 kts | 225° |
| 2026-05-06 15:56 | 22.18119 | 114.69458 | 10499 ft | 299 kts | 225° |
| 2026-05-06 15:57 | 22.16634 | 114.67954 | 10380 ft | 287 kts | 225° |
| 2026-05-06 15:57 | 22.15191 | 114.66484 | 10027 ft | 285 kts | 225° |
| 2026-05-06 15:57 | 22.13769 | 114.65030 | 9812 ft | 277 kts | 225° |
| 2026-05-06 15:57 | 22.12390 | 114.63618 | 9639 ft | 272 kts | 225° |
| 2026-05-06 15:58 | 22.11023 | 114.62216 | 9517 ft | 271 kts | 225° |
| 2026-05-06 15:58 | 22.09653 | 114.60810 | 9383 ft | 271 kts | 225° |
| 2026-05-06 15:58 | 22.08289 | 114.59411 | 9252 ft | 271 kts | 225° |
| 2026-05-06 15:58 | 22.06920 | 114.58007 | 9130 ft | 270 kts | 225° |
| 2026-05-06 15:59 | 22.05564 | 114.56617 | 9071 ft | 268 kts | 225° |
| 2026-05-06 15:59 | 22.04213 | 114.55233 | 9028 ft | 268 kts | 225° |
| 2026-05-06 15:59 | 22.02857 | 114.53839 | 9009 ft | 267 kts | 226° |
| 2026-05-06 15:59 | 22.01812 | 114.52219 | 9002 ft | 263 kts | 246° |
| 2026-05-06 16:00 | 22.01120 | 114.50389 | 9016 ft | 266 kts | 248° |
| 2026-05-06 16:00 | 22.00432 | 114.48547 | 9017 ft | 269 kts | 248° |
| 2026-05-06 16:00 | 21.99730 | 114.46677 | 8892 ft | 269 kts | 248° |
| 2026-05-06 16:00 | 21.99024 | 114.44804 | 8584 ft | 268 kts | 248° |
| 2026-05-06 16:01 | 21.98323 | 114.42955 | 8249 ft | 265 kts | 247° |
| 2026-05-06 16:01 | 21.97622 | 114.41112 | 7863 ft | 264 kts | 247° |
| 2026-05-06 16:01 | 21.96936 | 114.39312 | 7730 ft | 255 kts | 247° |
| 2026-05-06 16:01 | 21.96266 | 114.37558 | 7580 ft | 253 kts | 246° |
| 2026-05-06 16:02 | 21.95586 | 114.35783 | 7476 ft | 260 kts | 246° |
| 2026-05-06 16:02 | 21.94887 | 114.33960 | 7355 ft | 266 kts | 246° |
| 2026-05-06 16:02 | 21.94182 | 114.32121 | 7225 ft | 271 kts | 246° |
| 2026-05-06 16:02 | 21.93467 | 114.30255 | 7084 ft | 268 kts | 246° |
| 2026-05-06 16:03 | 21.92761 | 114.28415 | 6941 ft | 264 kts | 246° |
| 2026-05-06 16:03 | 21.92063 | 114.26597 | 6818 ft | 260 kts | 246° |
| 2026-05-06 16:03 | 21.91376 | 114.24807 | 6691 ft | 257 kts | 246° |
| 2026-05-06 16:03 | 21.90694 | 114.23034 | 6573 ft | 255 kts | 245° |
| 2026-05-06 16:04 | 21.90014 | 114.21267 | 6452 ft | 256 kts | 246° |
| 2026-05-06 16:04 | 21.89610 | 114.19406 | 6299 ft | 261 kts | 271° |
| 2026-05-06 16:04 | 21.90072 | 114.17497 | 6203 ft | 269 kts | 294° |
| 2026-05-06 16:04 | 21.90979 | 114.15703 | 6085 ft | 274 kts | 297° |
| 2026-05-06 16:05 | 21.91915 | 114.13915 | 5930 ft | 274 kts | 297° |
| 2026-05-06 16:05 | 21.92852 | 114.12134 | 5785 ft | 273 kts | 297° |
| 2026-05-06 16:05 | 21.93780 | 114.10368 | 5652 ft | 270 kts | 297° |
| 2026-05-06 16:05 | 21.94696 | 114.08616 | 5511 ft | 266 kts | 297° |
| 2026-05-06 16:06 | 21.95601 | 114.06879 | 5409 ft | 266 kts | 297° |
| 2026-05-06 16:06 | 21.96493 | 114.05163 | 5267 ft | 266 kts | 297° |
| 2026-05-06 16:06 | 21.97395 | 114.03424 | 5152 ft | 266 kts | 297° |
| 2026-05-06 16:06 | 21.98309 | 114.01657 | 5019 ft | 267 kts | 297° |
| 2026-05-06 16:07 | 21.99200 | 113.99932 | 4879 ft | 267 kts | 297° |
| 2026-05-06 16:07 | 22.00102 | 113.98184 | 4759 ft | 268 kts | 297° |
| 2026-05-06 16:07 | 22.01009 | 113.96428 | 4624 ft | 268 kts | 297° |
| 2026-05-06 16:07 | 22.01916 | 113.94669 | 4482 ft | 268 kts | 297° |
| 2026-05-06 16:08 | 22.02822 | 113.92911 | 4354 ft | 269 kts | 297° |
| 2026-05-06 16:08 | 22.03727 | 113.91153 | 4216 ft | 268 kts | 297° |
| 2026-05-06 16:08 | 22.04630 | 113.89398 | 4084 ft | 267 kts | 297° |
| 2026-05-06 16:08 | 22.05494 | 113.87722 | 3976 ft | 266 kts | 298° |
| 2026-05-06 16:09 | 22.06391 | 113.85979 | 3831 ft | 266 kts | 297° |
| 2026-05-06 16:09 | 22.07286 | 113.84240 | 3711 ft | 265 kts | 297° |
| 2026-05-06 16:09 | 22.08179 | 113.82502 | 3581 ft | 264 kts | 297° |
| 2026-05-06 16:09 | 22.09070 | 113.80769 | 3450 ft | 264 kts | 297° |
| 2026-05-06 16:10 | 22.09961 | 113.79040 | 3324 ft | 264 kts | 297° |
| 2026-05-06 16:10 | 22.11040 | 113.77499 | 3166 ft | 255 kts | 322° |
| 2026-05-06 16:10 | 22.12548 | 113.76640 | 3040 ft | 237 kts | 336° |
| 2026-05-06 16:10 | 22.13991 | 113.75933 | 2973 ft | 219 kts | 335° |
| 2026-05-06 16:11 | 22.15329 | 113.75266 | 2826 ft | 205 kts | 335° |
| 2026-05-06 16:11 | 22.16616 | 113.74625 | 2755 ft | 204 kts | 335° |
| 2026-05-06 16:11 | 22.17909 | 113.73981 | 2670 ft | 204 kts | 336° |
| 2026-05-06 16:11 | 22.19192 | 113.73341 | 2558 ft | 202 kts | 336° |
| 2026-05-06 16:12 | 22.20468 | 113.72720 | 2453 ft | 200 kts | 343° |
| 2026-05-06 16:12 | 22.21807 | 113.72686 | 2344 ft | 193 kts | 27° |
| 2026-05-06 16:12 | 22.22928 | 113.73421 | 2305 ft | 193 kts | 36° |
| 2026-05-06 16:12 | 22.24084 | 113.74223 | 2208 ft | 196 kts | 36° |
| 2026-05-06 16:13 | 22.25227 | 113.75014 | 2080 ft | 193 kts | 36° |
| 2026-05-06 16:13 | 22.26264 | 113.75857 | 1963 ft | 185 kts | 56° |
| 2026-05-06 16:13 | 22.26844 | 113.77066 | 1935 ft | 181 kts | 68° |
| 2026-05-06 16:13 | 22.27368 | 113.78322 | 1840 ft | 186 kts | 71° |
| 2026-05-06 16:14 | 22.27819 | 113.79616 | 1769 ft | 180 kts | 73° |
| 2026-05-06 16:14 | 22.28221 | 113.80860 | 1736 ft | 174 kts | 74° |
| 2026-05-06 16:14 | 22.28612 | 113.82081 | 1477 ft | 166 kts | 73° |
| 2026-05-06 16:14 | 22.28979 | 113.83222 | 1294 ft | 155 kts | 74° |
| 2026-05-06 16:15 | 22.29329 | 113.84312 | 1069 ft | 153 kts | 73° |
| 2026-05-06 16:15 | 22.29676 | 113.85396 | 911 ft | 153 kts | 72° |
| 2026-05-06 16:15 | 22.30037 | 113.86476 | 726 ft | 152 kts | 72° |
| 2026-05-06 16:15 | 22.30371 | 113.87552 | 547 ft | 151 kts | 72° |
| 2026-05-06 16:16 | 22.30715 | 113.88623 | 365 ft | 151 kts | 71° |
| 2026-05-06 16:16 | 22.31052 | 113.89656 | 161 ft | 147 kts | 72° |
| 2026-05-06 16:16 | 22.31379 | 113.90683 | 41 ft | 138 kts | 70° |
| 2026-05-06 16:16 | 22.31635 | 113.91483 | 43 ft | 85 kts | 69° |
| 2026-05-06 16:17 | 22.31773 | 113.91901 | 41 ft | 34 kts | 71° |
| 2026-05-06 16:17 | 22.31795 | 113.92126 | 41 ft | 30 kts | 96° |
| 2026-05-06 16:17 | 22.31783 | 113.92191 | 41 ft | 0 kts | 103° |
| 2026-05-06 16:18 | 22.31782 | 113.92197 | 41 ft | 2 kts | 103° |
| 2026-05-06 16:18 | 22.31774 | 113.92233 | 39 ft | 7 kts | 101° |
| 2026-05-06 16:18 | 22.31721 | 113.92249 | 41 ft | 11 kts | 203° |
| 2026-05-06 16:18 | 22.31674 | 113.92162 | 41 ft | 16 kts | 251° |
| 2026-05-06 16:19 | 22.31636 | 113.92049 | 41 ft | 13 kts | 237° |
| 2026-05-06 16:19 | 22.31547 | 113.92047 | 41 ft | 15 kts | 158° |
| 2026-05-06 16:19 | 22.31441 | 113.92088 | 41 ft | 18 kts | 161° |
| 2026-05-06 16:19 | 22.31317 | 113.92134 | 41 ft | 20 kts | 161° |
| 2026-05-06 16:20 | 22.31178 | 113.92188 | 41 ft | 22 kts | 160° |
| 2026-05-06 16:20 | 22.31076 | 113.92226 | 41 ft | 16 kts | 162° |
| 2026-05-06 16:20 | 22.30963 | 113.92266 | 41 ft | 18 kts | 161° |
| 2026-05-06 16:20 | 22.30834 | 113.92316 | 41 ft | 21 kts | 160° |
| 2026-05-06 16:21 | 22.30735 | 113.92346 | 41 ft | 13 kts | 189° |
| 2026-05-06 16:21 | 22.30696 | 113.92261 | 41 ft | 15 kts | 252° |
| 2026-05-06 16:21 | 22.30658 | 113.92147 | 41 ft | 18 kts | 250° |
| 2026-05-06 16:21 | 22.30615 | 113.92010 | 41 ft | 21 kts | 251° |
| 2026-05-06 16:22 | 22.30564 | 113.91852 | 41 ft | 24 kts | 251° |
| 2026-05-06 16:22 | 22.30506 | 113.91672 | 41 ft | 27 kts | 251° |
| 2026-05-06 16:22 | 22.30448 | 113.91492 | 41 ft | 18 kts | 251° |
| 2026-05-06 16:22 | 22.30378 | 113.91465 | 41 ft | 13 kts | 160° |
| 2026-05-06 16:23 | 22.30282 | 113.91502 | 41 ft | 16 kts | 161° |
| 2026-05-06 16:23 | 22.30170 | 113.91543 | 42 ft | 18 kts | 161° |
| 2026-05-06 16:23 | 22.30055 | 113.91586 | 41 ft | 12 kts | 160° |
| 2026-05-06 16:23 | 22.30042 | 113.91670 | 41 ft | 14 kts | 71° |
| 2026-05-06 16:24 | 22.30077 | 113.91777 | 41 ft | 16 kts | 71° |
| 2026-05-06 16:24 | 22.30117 | 113.91903 | 41 ft | 19 kts | 70° |
| 2026-05-06 16:24 | 22.30147 | 113.92005 | 41 ft | 8 kts | 92° |
| 2026-05-06 16:24 | 22.30099 | 113.92041 | 41 ft | 10 kts | 161° |
| 2026-05-06 16:25 | 22.30020 | 113.92070 | 41 ft | 14 kts | 161° |
| 2026-05-06 16:25 | 22.29968 | 113.92114 | 41 ft | 8 kts | 85° |
| 2026-05-06 16:25 | 22.29990 | 113.92185 | 41 ft | 11 kts | 70° |
| 2026-05-06 16:25 | 22.30019 | 113.92275 | 41 ft | 12 kts | 72° |
| 2026-05-06 16:26 | 22.30066 | 113.92296 | 41 ft | 8 kts | 341° |
| 2026-05-06 16:26 | 22.30115 | 113.92277 | 41 ft | 3 kts | 341° |
| 2026-05-06 16:26 | 22.30120 | 113.92275 | 41 ft | 0 kts | 341° |